createdAt,value
2023-01-29T00:00:00.947Z,29.07
2023-01-29T00:02:29.377Z,28.90
2023-01-29T00:05:10.052Z,27.27
2023-01-29T00:07:45.329Z,27.73
2023-01-29T00:10:13.919Z,28.20
2023-01-29T00:12:42.442Z,27.40
2023-01-29T00:15:11.165Z,30.07
2023-01-29T00:17:39.580Z,28.50
2023-01-29T00:20:10.024Z,29.17
2023-01-29T00:22:38.490Z,27.50
2023-01-29T00:25:07.388Z,27.43
2023-01-29T00:27:35.851Z,29.60
2023-01-29T00:30:12.111Z,28.83
2023-01-29T00:32:40.806Z,28.67
2023-01-29T00:35:11.440Z,27.27
2023-01-29T00:37:39.916Z,27.13
2023-01-29T00:40:09.284Z,27.67
2023-01-29T00:42:55.448Z,26.70
2023-01-29T00:45:23.885Z,28.23
2023-01-29T00:47:52.297Z,28.10
2023-01-29T00:50:22.327Z,28.43
2023-01-29T00:52:51.854Z,27.60
2023-01-29T00:55:20.664Z,28.27
2023-01-29T00:57:49.413Z,28.57
2023-01-29T01:00:19.486Z,27.37
2023-01-29T01:03:05.632Z,27.63
2023-01-29T01:05:36.873Z,27.47
2023-01-29T01:08:25.556Z,27.50
2023-01-29T01:10:59.467Z,28.87
2023-01-29T01:13:28.041Z,28.03
2023-01-29T01:15:56.720Z,29.33
2023-01-29T01:18:25.202Z,27.90
2023-01-29T01:20:59.709Z,26.83
2023-01-29T01:23:28.417Z,27.07
2023-01-29T01:25:56.866Z,29.33
2023-01-29T01:28:25.342Z,29.17
2023-01-29T01:30:53.838Z,28.90
2023-01-29T01:33:22.278Z,29.10
2023-01-29T01:35:50.729Z,28.07
2023-01-29T01:38:20.503Z,28.17
2023-01-29T01:40:48.925Z,29.40
2023-01-29T01:43:17.379Z,28.87
2023-01-29T01:45:46.797Z,28.20
2023-01-29T01:48:17.623Z,28.70
2023-01-29T01:50:48.431Z,28.17
2023-01-29T01:53:18.544Z,28.30
2023-01-29T01:55:50.574Z,28.67
2023-01-29T01:58:21.681Z,28.87
2023-01-29T02:00:50.333Z,28.80
2023-01-29T02:03:37.097Z,29.80
2023-01-29T02:06:23.026Z,27.70
2023-01-29T02:09:12.784Z,28.67
2023-01-29T02:11:42.653Z,29.93
2023-01-29T02:14:11.311Z,28.23
2023-01-29T02:16:40.139Z,29.00
2023-01-29T02:19:12.775Z,29.63
2023-01-29T02:21:52.784Z,30.90
2023-01-29T02:24:46.019Z,29.67
2023-01-29T02:27:17.293Z,27.90
2023-01-29T02:29:55.499Z,29.27
2023-01-29T02:32:28.078Z,30.57
2023-01-29T02:35:19.108Z,29.13
2023-01-29T02:37:54.489Z,29.43
2023-01-29T02:40:28.858Z,30.03
2023-01-29T02:43:02.909Z,32.27
2023-01-29T02:45:34.900Z,29.43
2023-01-29T02:48:04.298Z,31.90
2023-01-29T02:50:36.448Z,30.97
2023-01-29T02:53:08.434Z,28.73
2023-01-29T02:55:40.798Z,29.53
2023-01-29T02:58:12.187Z,28.53
2023-01-29T03:00:42.764Z,30.87
2023-01-29T03:03:14.848Z,29.83
2023-01-29T03:05:51.092Z,31.57
2023-01-29T03:08:22.504Z,30.50
2023-01-29T03:10:53.182Z,29.93
2023-01-29T03:13:23.659Z,32.37
2023-01-29T03:16:01.463Z,30.53
2023-01-29T03:18:32.232Z,30.47
2023-01-29T03:21:04.079Z,30.03
2023-01-29T03:23:52.319Z,28.93
2023-01-29T03:26:39.864Z,30.57
2023-01-29T03:29:26.312Z,30.77
2023-01-29T03:32:07.492Z,28.37
2023-01-29T03:34:40.838Z,28.97
2023-01-29T03:37:10.973Z,29.57
2023-01-29T03:39:39.389Z,28.53
2023-01-29T03:42:14.399Z,30.50
2023-01-29T03:44:49.477Z,29.27
2023-01-29T03:47:22.876Z,29.07
2023-01-29T03:49:58.205Z,29.70
2023-01-29T03:52:28.537Z,29.43
2023-01-29T03:55:01.417Z,28.17
2023-01-29T03:57:33.670Z,30.03
2023-01-29T04:00:05.362Z,30.50
2023-01-29T04:02:38.299Z,28.67
2023-01-29T04:05:08.388Z,28.70
2023-01-29T04:07:37.584Z,29.27
2023-01-29T04:10:09.518Z,29.70
2023-01-29T04:12:39.701Z,30.60
2023-01-29T04:15:11.228Z,30.60
2023-01-29T04:17:42.259Z,29.20
2023-01-29T04:20:11.465Z,29.83
2023-01-29T04:22:41.599Z,29.90
2023-01-29T04:25:16.003Z,28.60
2023-01-29T04:27:47.565Z,28.93
2023-01-29T04:30:23.562Z,30.97
2023-01-29T04:32:59.622Z,28.93
2023-01-29T04:35:31.604Z,30.33
2023-01-29T04:38:06.933Z,30.67
2023-01-29T04:40:39.100Z,28.37
2023-01-29T04:43:10.039Z,31.17
2023-01-29T04:45:45.138Z,29.70
2023-01-29T04:48:20.408Z,30.80
2023-01-29T04:50:51.991Z,30.60
2023-01-29T04:53:25.617Z,32.27
2023-01-29T04:55:57.055Z,29.27
2023-01-29T04:58:28.627Z,31.43
2023-01-29T05:00:57.030Z,29.47
2023-01-29T05:03:28.465Z,29.47
2023-01-29T05:05:58.059Z,27.87
2023-01-29T05:08:27.334Z,30.27
2023-01-29T05:10:56.864Z,29.57
2023-01-29T05:13:25.713Z,29.47
2023-01-29T05:15:56.237Z,28.80
2023-01-29T05:18:24.703Z,28.43
2023-01-29T05:20:55.463Z,28.07
2023-01-29T05:23:25.514Z,30.70
2023-01-29T05:25:54.051Z,30.33
2023-01-29T05:28:21.669Z,30.97
2023-01-29T05:30:51.174Z,30.93
2023-01-29T05:33:20.766Z,29.30
2023-01-29T05:35:49.800Z,30.67
2023-01-29T05:38:20.028Z,30.33
2023-01-29T05:40:48.795Z,30.87
2023-01-29T05:43:18.107Z,31.37
2023-01-29T05:45:53.366Z,29.97
2023-01-29T05:48:21.798Z,30.87
2023-01-29T05:50:50.490Z,31.80
2023-01-29T05:53:20.263Z,31.00
2023-01-29T05:55:49.075Z,31.17
2023-01-29T05:58:19.596Z,31.03
2023-01-29T06:00:48.213Z,30.50
2023-01-29T06:03:17.174Z,30.40
2023-01-29T06:05:45.666Z,30.73
2023-01-29T06:08:14.323Z,29.63
2023-01-29T06:10:44.185Z,30.97
2023-01-29T06:13:12.596Z,29.10
2023-01-29T06:15:41.783Z,30.43
2023-01-29T06:18:10.220Z,31.53
2023-01-29T06:20:38.842Z,30.60
2023-01-29T06:23:07.275Z,29.70
2023-01-29T06:25:35.729Z,29.63
2023-01-29T06:28:05.644Z,29.20
2023-01-29T06:30:34.173Z,28.97
2023-01-29T06:33:02.849Z,27.87
2023-01-29T06:35:31.349Z,27.97
2023-01-29T06:37:59.763Z,30.37
2023-01-29T06:40:28.202Z,29.07
2023-01-29T06:42:56.644Z,30.13
2023-01-29T06:45:26.598Z,29.60
2023-01-29T06:47:55.040Z,30.50
2023-01-29T06:50:23.504Z,29.47
2023-01-29T06:52:51.919Z,29.10
2023-01-29T06:55:20.407Z,29.07
2023-01-29T06:57:48.842Z,29.17
2023-01-29T07:00:18.103Z,29.33
2023-01-29T07:02:50.643Z,30.87
2023-01-29T07:05:19.368Z,30.20
2023-01-29T07:07:47.825Z,32.10
2023-01-29T07:10:16.615Z,30.40
2023-01-29T07:12:45.377Z,30.73
2023-01-29T07:15:13.797Z,30.77
2023-01-29T07:17:42.368Z,29.83
2023-01-29T07:20:13.183Z,31.00
2023-01-29T07:22:41.748Z,29.90
2023-01-29T07:25:10.845Z,31.43
2023-01-29T07:27:39.311Z,28.87
2023-01-29T07:30:08.457Z,29.70
2023-01-29T07:32:36.938Z,29.43
2023-01-29T07:35:05.552Z,29.03
2023-01-29T07:37:35.362Z,31.03
2023-01-29T07:40:05.185Z,29.67
2023-01-29T07:42:33.621Z,28.97
2023-01-29T07:45:02.047Z,29.00
2023-01-29T07:47:30.492Z,29.93
2023-01-29T07:49:59.039Z,30.07
2023-01-29T07:52:27.463Z,29.17
2023-01-29T07:54:57.245Z,30.80
2023-01-29T07:57:25.911Z,29.37
2023-01-29T07:59:54.333Z,31.73
2023-01-29T08:02:22.873Z,31.60
2023-01-29T08:04:51.294Z,30.17
2023-01-29T08:07:19.735Z,28.67
2023-01-29T08:09:48.278Z,29.37
2023-01-29T08:12:18.091Z,29.67
2023-01-29T08:14:46.894Z,30.27
2023-01-29T08:17:15.456Z,30.53
2023-01-29T08:19:43.892Z,29.73
2023-01-29T08:22:12.314Z,30.10
2023-01-29T08:24:53.441Z,29.77
2023-01-29T08:27:30.012Z,29.47
2023-01-29T08:29:58.416Z,30.07
2023-01-29T08:32:26.949Z,29.60
2023-01-29T08:34:55.346Z,29.50
2023-01-29T08:37:23.774Z,28.50
2023-01-29T08:39:52.182Z,28.47
2023-01-29T08:42:20.609Z,29.53
2023-01-29T08:44:50.476Z,29.77
2023-01-29T08:47:18.930Z,29.57
2023-01-29T08:49:47.630Z,30.30
2023-01-29T08:52:16.090Z,32.23
2023-01-29T08:54:45.788Z,31.37
2023-01-29T08:57:14.424Z,31.33
2023-01-29T08:59:42.982Z,30.00
2023-01-29T09:02:13.574Z,31.33
2023-01-29T09:04:42.058Z,31.60
2023-01-29T09:07:10.512Z,30.40
2023-01-29T09:09:39.111Z,30.23
2023-01-29T09:12:10.377Z,29.97
2023-01-29T09:14:38.995Z,29.33
2023-01-29T09:17:07.400Z,29.67
2023-01-29T09:19:37.293Z,31.40
2023-01-29T09:22:05.771Z,31.43
2023-01-29T09:24:35.059Z,32.10
2023-01-29T09:27:04.036Z,28.70
2023-01-29T09:29:34.766Z,31.77
2023-01-29T09:32:04.306Z,29.93
2023-01-29T09:34:32.799Z,29.60
2023-01-29T09:37:02.763Z,29.70
2023-01-29T09:39:31.313Z,29.97
2023-01-29T09:42:02.161Z,29.33
2023-01-29T09:44:35.572Z,30.20
2023-01-29T09:47:07.342Z,30.70
2023-01-29T09:49:39.500Z,30.17
2023-01-29T09:52:12.474Z,30.00
2023-01-29T09:54:47.460Z,28.80
2023-01-29T09:57:19.412Z,30.20
2023-01-29T09:59:47.909Z,30.93
2023-01-29T10:02:23.838Z,28.70
2023-01-29T10:05:09.034Z,31.10
2023-01-29T10:07:48.449Z,27.60
2023-01-29T10:10:21.006Z,29.07
2023-01-29T10:13:02.923Z,29.53
2023-01-29T10:15:40.381Z,29.93
2023-01-29T10:18:18.259Z,27.60
2023-01-29T10:20:54.204Z,29.50
2023-01-29T10:23:29.017Z,28.03
2023-01-29T10:25:57.729Z,27.10
2023-01-29T10:28:29.642Z,28.87
2023-01-29T10:30:59.872Z,27.63
2023-01-29T10:33:36.159Z,28.27
2023-01-29T10:36:14.056Z,26.87
2023-01-29T10:38:46.303Z,28.20
2023-01-29T10:41:19.995Z,29.83
2023-01-29T10:43:53.435Z,28.37
2023-01-29T10:46:25.579Z,26.37
2023-01-29T10:49:01.106Z,27.10
2023-01-29T10:51:35.332Z,28.53
2023-01-29T10:54:11.546Z,27.13
2023-01-29T10:56:45.148Z,28.10
2023-01-29T10:59:21.407Z,26.80
2023-01-29T11:01:49.830Z,26.50
2023-01-29T11:04:18.489Z,27.50
2023-01-29T11:06:47.010Z,27.57
2023-01-29T11:09:20.873Z,28.03
2023-01-29T11:11:50.621Z,26.67
2023-01-29T11:14:23.404Z,27.80
2023-01-29T11:16:51.911Z,29.13
2023-01-29T11:19:20.824Z,26.93
2023-01-29T11:21:53.685Z,26.93
2023-01-29T11:24:23.541Z,27.33
2023-01-29T11:26:52.556Z,26.07
2023-01-29T11:29:33.946Z,28.53
2023-01-29T11:32:04.171Z,26.37
2023-01-29T11:34:32.618Z,28.23
2023-01-29T11:37:02.316Z,26.67
2023-01-29T11:39:32.557Z,27.67
2023-01-29T11:42:02.818Z,28.63
2023-01-29T11:44:34.686Z,28.87
2023-01-29T11:47:12.792Z,27.03
2023-01-29T11:49:42.498Z,27.73
2023-01-29T11:52:12.035Z,27.30
2023-01-29T11:54:46.297Z,26.73
2023-01-29T11:57:25.362Z,28.83
2023-01-29T11:59:54.805Z,27.73
2023-01-29T12:02:28.178Z,27.27
2023-01-29T12:04:57.396Z,27.50
2023-01-29T12:07:25.863Z,27.07
2023-01-29T12:09:56.610Z,29.10
2023-01-29T12:12:32.413Z,27.00
2023-01-29T12:15:19.458Z,28.17
2023-01-29T12:17:52.761Z,26.27
2023-01-29T12:20:24.933Z,26.97
2023-01-29T12:22:56.033Z,27.40
2023-01-29T12:25:27.910Z,25.83
2023-01-29T12:27:59.943Z,26.23
2023-01-29T12:30:31.624Z,27.10
2023-01-29T12:33:03.005Z,26.77
2023-01-29T12:35:33.526Z,25.77
2023-01-29T12:38:04.384Z,24.63
2023-01-29T12:40:36.856Z,27.50
2023-01-29T12:43:07.797Z,25.97
2023-01-29T12:45:37.535Z,25.97
2023-01-29T12:48:08.211Z,23.63
2023-01-29T12:50:37.809Z,26.90
2023-01-29T12:53:09.291Z,24.77
2023-01-29T12:55:41.436Z,24.90
2023-01-29T12:58:12.590Z,24.77
2023-01-29T13:00:42.689Z,24.03
2023-01-29T13:03:17.137Z,25.13
2023-01-29T13:05:50.139Z,23.93
2023-01-29T13:08:20.797Z,25.10
2023-01-29T13:10:51.617Z,24.53
2023-01-29T13:13:24.322Z,24.77
2023-01-29T13:15:53.540Z,25.30
2023-01-29T13:18:49.307Z,24.90
2023-01-29T13:21:19.322Z,25.20
2023-01-29T13:23:49.674Z,25.00
2023-01-29T13:26:21.035Z,25.53
2023-01-29T13:28:49.990Z,23.40
2023-01-29T13:31:28.133Z,24.17
2023-01-29T13:34:01.099Z,24.70
2023-01-29T13:36:30.361Z,25.17
2023-01-29T13:39:02.299Z,24.87
2023-01-29T13:41:36.612Z,24.13
2023-01-29T13:44:07.398Z,27.03
2023-01-29T13:46:35.869Z,25.73
2023-01-29T13:49:05.168Z,25.70
2023-01-29T13:51:36.571Z,26.43
2023-01-29T13:54:07.622Z,24.80
2023-01-29T13:56:51.640Z,25.53
2023-01-29T13:59:24.128Z,25.00
2023-01-29T14:02:06.016Z,24.80
2023-01-29T14:04:34.489Z,23.93
2023-01-29T14:07:04.218Z,25.27
2023-01-29T14:09:36.808Z,24.37
2023-01-29T14:12:08.353Z,24.43
2023-01-29T14:14:53.092Z,24.10
2023-01-29T14:17:22.057Z,25.00
2023-01-29T14:19:51.226Z,26.20
2023-01-29T14:22:22.515Z,24.43
2023-01-29T14:24:51.500Z,24.17
2023-01-29T14:27:23.516Z,24.17
2023-01-29T14:29:57.569Z,25.30
2023-01-29T14:32:27.060Z,22.43
2023-01-29T14:34:58.583Z,23.60
2023-01-29T14:37:28.971Z,24.57
2023-01-29T14:39:58.695Z,24.93
2023-01-29T14:42:30.563Z,24.17
2023-01-29T14:45:00.239Z,24.30
2023-01-29T14:47:55.646Z,22.70
2023-01-29T14:50:45.277Z,23.80
2023-01-29T14:53:15.662Z,23.10
2023-01-29T14:55:46.100Z,23.07
2023-01-29T14:58:17.732Z,22.10
2023-01-29T15:00:47.634Z,22.90
2023-01-29T15:03:20.926Z,23.10
2023-01-29T15:05:50.920Z,24.70
2023-01-29T15:08:23.839Z,23.63
2023-01-29T15:11:14.393Z,23.73
2023-01-29T15:13:48.088Z,23.10
2023-01-29T15:16:19.504Z,22.80
2023-01-29T15:18:49.740Z,22.47
2023-01-29T15:21:19.161Z,21.40
2023-01-29T15:23:48.831Z,22.33
2023-01-29T15:26:20.522Z,21.97
2023-01-29T15:29:03.367Z,20.53
2023-01-29T15:31:32.703Z,16.00
2023-01-29T15:34:03.894Z,19.50
2023-01-29T15:36:33.237Z,20.53
2023-01-29T15:39:20.135Z,20.03
2023-01-29T15:41:48.938Z,18.93
2023-01-29T15:44:20.211Z,18.83
2023-01-29T15:46:51.209Z,19.50
2023-01-29T15:49:21.501Z,18.77
2023-01-29T15:51:50.606Z,18.63
2023-01-29T15:54:19.297Z,17.23
2023-01-29T15:56:50.296Z,18.53
2023-01-29T15:59:21.517Z,19.23
2023-01-29T16:01:49.967Z,18.47
2023-01-29T16:04:20.710Z,18.23
2023-01-29T16:06:50.801Z,18.37
2023-01-29T16:09:20.623Z,18.40
2023-01-29T16:11:50.496Z,18.43
2023-01-29T16:14:28.515Z,17.77
2023-01-29T16:16:57.194Z,18.23
2023-01-29T16:19:26.702Z,18.50
2023-01-29T16:21:58.076Z,19.83
2023-01-29T16:24:26.902Z,17.47
2023-01-29T16:26:59.663Z,18.70
2023-01-29T16:29:33.365Z,17.30
2023-01-29T16:32:03.183Z,17.73
2023-01-29T16:34:34.649Z,18.13
2023-01-29T16:37:03.794Z,18.33
2023-01-29T16:39:34.386Z,19.40
2023-01-29T16:42:21.160Z,17.63
2023-01-29T16:44:53.847Z,17.77
2023-01-29T16:47:25.246Z,18.13
2023-01-29T16:49:54.983Z,18.50
2023-01-29T16:52:25.462Z,18.83
2023-01-29T16:54:53.997Z,17.90
2023-01-29T16:57:24.777Z,17.93
2023-01-29T16:59:57.981Z,16.97
2023-01-29T17:02:28.224Z,17.40
2023-01-29T17:04:59.457Z,18.10
2023-01-29T17:07:28.295Z,19.13
2023-01-29T17:09:58.619Z,18.10
2023-01-29T17:12:27.910Z,17.93
2023-01-29T17:14:58.996Z,17.70
2023-01-29T17:17:31.338Z,19.77
2023-01-29T17:20:00.248Z,20.10
2023-01-29T17:22:28.831Z,20.60
2023-01-29T17:24:57.272Z,19.80
2023-01-29T17:27:25.729Z,19.63
2023-01-29T17:29:54.276Z,19.37
2023-01-29T17:32:24.044Z,18.77
2023-01-29T17:34:52.777Z,19.67
2023-01-29T17:37:21.244Z,19.03
2023-01-29T17:39:52.649Z,20.50
2023-01-29T17:42:23.744Z,19.93
2023-01-29T17:44:52.166Z,22.03
2023-01-29T17:47:20.594Z,19.97
2023-01-29T17:49:51.035Z,20.50
2023-01-29T17:52:19.507Z,20.37
2023-01-29T17:54:47.943Z,20.53
2023-01-29T17:57:17.371Z,19.50
2023-01-29T17:59:45.842Z,20.93
2023-01-29T18:02:29.622Z,19.23
2023-01-29T18:04:59.737Z,19.37
2023-01-29T18:07:28.133Z,19.53
2023-01-29T18:09:56.542Z,21.27
2023-01-29T18:12:25.002Z,19.37
2023-01-29T18:14:53.388Z,21.13
2023-01-29T18:17:23.045Z,19.13
2023-01-29T18:19:51.505Z,21.03
2023-01-29T18:22:21.407Z,20.90
2023-01-29T18:24:49.806Z,20.73
2023-01-29T18:27:18.279Z,19.93
2023-01-29T18:29:48.798Z,20.67
2023-01-29T18:32:17.226Z,19.03
2023-01-29T18:34:45.643Z,20.43
2023-01-29T18:37:14.081Z,19.67
2023-01-29T18:39:43.879Z,20.33
2023-01-29T18:42:15.416Z,19.73
2023-01-29T18:44:43.845Z,19.87
2023-01-29T18:47:12.339Z,19.10
2023-01-29T18:49:40.749Z,20.77
2023-01-29T18:52:09.480Z,20.87
2023-01-29T18:54:37.922Z,21.03
2023-01-29T18:57:14.372Z,19.60
2023-01-29T18:59:56.200Z,20.83
2023-01-29T19:02:24.837Z,20.43
2023-01-29T19:04:53.490Z,19.80
2023-01-29T19:07:21.939Z,21.17
2023-01-29T19:09:50.520Z,20.47
2023-01-29T19:12:20.337Z,20.90
2023-01-29T19:14:48.731Z,20.20
2023-01-29T19:17:17.336Z,20.73
2023-01-29T19:19:45.791Z,20.17
2023-01-29T19:22:14.245Z,20.90
2023-01-29T19:24:42.674Z,20.73
2023-01-29T19:27:11.669Z,20.10
2023-01-29T19:29:41.504Z,20.97
2023-01-29T19:32:09.998Z,20.77
2023-01-29T19:34:38.427Z,21.60
2023-01-29T19:37:06.853Z,21.20
2023-01-29T19:39:35.254Z,20.67
2023-01-29T19:42:03.705Z,23.17
2023-01-29T19:44:32.103Z,21.30
2023-01-29T19:47:02.187Z,21.30
2023-01-29T19:49:31.074Z,20.27
2023-01-29T19:52:00.993Z,20.13
2023-01-29T19:54:30.266Z,20.20
2023-01-29T19:56:58.849Z,20.60
2023-01-29T19:59:27.305Z,19.10
2023-01-29T20:01:55.864Z,19.80
2023-01-29T20:04:26.746Z,20.10
2023-01-29T20:06:55.214Z,18.97
2023-01-29T20:09:23.640Z,19.83
2023-01-29T20:11:52.114Z,20.60
2023-01-29T20:14:20.614Z,20.07
2023-01-29T20:16:49.049Z,20.83
2023-01-29T20:19:17.936Z,19.73
2023-01-29T20:21:49.881Z,22.00
2023-01-29T20:24:18.465Z,20.47
2023-01-29T20:26:46.970Z,20.17
2023-01-29T20:29:15.529Z,21.37
2023-01-29T20:31:44.295Z,21.03
2023-01-29T20:34:12.863Z,17.47
2023-01-29T20:36:41.380Z,20.63
2023-01-29T20:39:11.174Z,20.50
2023-01-29T20:41:41.660Z,19.77
2023-01-29T20:44:10.174Z,19.37
2023-01-29T20:46:38.783Z,20.17
2023-01-29T20:49:08.072Z,20.03
2023-01-29T20:51:36.869Z,20.60
2023-01-29T20:54:05.423Z,18.80
2023-01-29T20:56:36.676Z,20.20
2023-01-29T20:59:08.333Z,18.67
2023-01-29T21:01:36.789Z,19.93
2023-01-29T21:04:05.255Z,20.60
2023-01-29T21:06:33.727Z,21.73
2023-01-29T21:09:02.179Z,21.43
2023-01-29T21:11:31.832Z,20.73
2023-01-29T21:14:02.103Z,21.93
2023-01-29T21:16:30.666Z,21.03
2023-01-29T21:18:59.299Z,21.43
2023-01-29T21:21:27.974Z,20.17
2023-01-29T21:23:58.187Z,21.10
2023-01-29T21:26:26.772Z,21.07
2023-01-29T21:28:55.284Z,22.13
2023-01-29T21:31:25.149Z,20.07
2023-01-29T21:33:53.620Z,21.10
2023-01-29T21:36:22.042Z,19.53
2023-01-29T21:38:50.486Z,19.37
2023-01-29T21:41:18.965Z,19.90
2023-01-29T21:43:46.400Z,19.87
2023-01-29T21:46:16.173Z,19.93
2023-01-29T21:48:46.020Z,20.87
2023-01-29T21:51:14.435Z,21.30
2023-01-29T21:53:43.329Z,19.77
2023-01-29T21:56:12.056Z,20.33
2023-01-29T21:58:40.697Z,20.10
2023-01-29T22:01:17.934Z,20.27
2023-01-29T22:03:59.190Z,21.87
2023-01-29T22:06:28.281Z,20.27
2023-01-29T22:08:56.742Z,19.57
2023-01-29T22:11:25.320Z,20.53
2023-01-29T22:13:53.811Z,20.37
2023-01-29T22:16:22.250Z,20.87
2023-01-29T22:18:51.268Z,21.03
2023-01-29T22:21:21.086Z,21.80
2023-01-29T22:23:50.432Z,19.70
2023-01-29T22:26:19.363Z,20.00
2023-01-29T22:28:48.063Z,21.27
2023-01-29T22:31:16.517Z,21.37
2023-01-29T22:33:45.291Z,22.77
2023-01-29T22:36:13.714Z,23.00
2023-01-29T22:38:45.230Z,21.63
2023-01-29T22:41:13.763Z,21.47
2023-01-29T22:43:43.936Z,23.40
2023-01-29T22:46:12.845Z,22.40
2023-01-29T22:48:41.330Z,22.57
2023-01-29T22:51:13.890Z,23.37
2023-01-29T22:53:43.233Z,21.13
2023-01-29T22:56:13.358Z,21.10
2023-01-29T22:58:42.278Z,21.97
2023-01-29T23:01:10.789Z,21.23
2023-01-29T23:03:39.236Z,24.90
2023-01-29T23:06:07.707Z,25.20
2023-01-29T23:08:36.193Z,26.90
2023-01-29T23:11:15.051Z,25.47
2023-01-29T23:13:46.327Z,26.23
2023-01-29T23:16:14.829Z,25.40
2023-01-29T23:18:43.581Z,24.37
2023-01-29T23:21:12.647Z,25.97
2023-01-29T23:23:44.681Z,24.93
2023-01-29T23:26:28.294Z,26.47
2023-01-29T23:28:58.354Z,25.17
2023-01-29T23:31:27.098Z,25.70
2023-01-29T23:33:55.568Z,26.47
2023-01-29T23:36:24.121Z,25.33
2023-01-29T23:38:52.584Z,25.37
2023-01-29T23:41:21.251Z,25.37
2023-01-29T23:43:49.973Z,26.40
2023-01-29T23:46:19.783Z,25.90
2023-01-29T23:48:48.259Z,24.67
2023-01-29T23:51:16.728Z,25.43
2023-01-29T23:53:45.178Z,27.07
2023-01-29T23:56:13.610Z,25.57
2023-01-29T23:58:42.016Z,25.07
